Time;durP1;ratioP1;P1;durP2;ratioP2;P2;SDS_P1;SDS_P2;PMS_P1;PMS_P2;Temp;Humidity;BMP_temperature;BMP_pressure;BME280_temperature;BME280_humidity;BME280_pressure;Samples;Min_cycle;Max_cycle;Signal;HPM_P1;HPM_P2
2023/09/06 00:01:18;;;;;;;6.57;2.10;;;24.60;60.70;;;;;;5054269;28;20663;-59
2023/09/06 00:03:45;;;;;;;2.47;2.27;;;24.60;61.00;;;;;;5054143;28;20449;-59
2023/09/06 00:06:11;;;;;;;3.20;2.43;;;24.50;61.10;;;;;;5053834;28;20438;-59
2023/09/06 00:08:38;;;;;;;3.03;2.10;;;24.40;61.10;;;;;;5053817;28;20943;-59
2023/09/06 00:11:05;;;;;;;2.00;1.90;;;24.30;61.30;;;;;;5054040;28;20441;-59
2023/09/06 00:13:34;;;;;;;3.10;2.80;;;24.20;61.70;;;;;;5054042;28;20548;-59
2023/09/06 00:16:02;;;;;;;5.33;2.40;;;24.10;61.70;;;;;;5053992;28;20456;-59
2023/09/06 00:18:30;;;;;;;3.40;2.90;;;23.90;62.00;;;;;;5053915;28;20449;-59
2023/09/06 00:20:57;;;;;;;6.13;2.50;;;23.80;63.20;;;;;;5053670;28;20539;-59
2023/09/06 00:23:25;;;;;;;3.37;2.50;;;23.70;62.90;;;;;;5053870;28;20465;-59
2023/09/06 00:25:53;;;;;;;3.20;2.57;;;23.70;63.30;;;;;;5053703;28;20450;-59
2023/09/06 00:28:20;;;;;;;3.60;2.83;;;23.60;63.60;;;;;;5053755;28;20481;-59
2023/09/06 00:30:48;;;;;;;3.67;3.00;;;23.60;64.10;;;;;;5053654;28;20445;-59
2023/09/06 00:33:15;;;;;;;2.43;2.23;;;23.50;64.30;;;;;;5053656;28;20461;-59
2023/09/06 00:35:42;;;;;;;3.43;2.57;;;23.50;64.60;;;;;;5053667;28;20449;-59
2023/09/06 00:38:09;;;;;;;2.67;2.40;;;23.50;64.90;;;;;;5053350;28;20507;-59
2023/09/06 00:40:38;;;;;;;7.03;3.07;;;23.40;65.10;;;;;;5053505;28;20491;-59
2023/09/06 00:43:06;;;;;;;2.40;2.20;;;23.40;65.40;;;;;;5053508;28;20462;-59
2023/09/06 00:45:38;;;;;;;3.50;2.50;;;23.40;65.50;;;;;;5053140;28;20446;-59
2023/09/06 00:48:08;;;;;;;3.10;2.80;;;23.30;65.80;;;;;;5053420;28;20426;-59
2023/09/06 00:50:35;;;;;;;2.57;2.37;;;23.30;66.00;;;;;;5053469;28;20919;-59
2023/09/06 00:53:04;;;;;;;3.10;2.80;;;23.20;66.20;;;;;;5053331;28;20461;-58
2023/09/06 00:55:31;;;;;;;4.63;2.80;;;23.20;66.60;;;;;;5053042;28;20477;-58
2023/09/06 00:57:57;;;;;;;2.67;2.47;;;23.10;66.80;;;;;;5053306;28;20445;-58
2023/09/06 01:00:24;;;;;;;6.53;2.60;;;23.10;67.40;;;;;;5053232;28;20508;-59
2023/09/06 01:02:51;;;;;;;2.80;2.60;;;23.10;67.90;;;;;;5053230;28;20466;-59
2023/09/06 01:05:20;;;;;;;5.27;2.60;;;23.00;67.90;;;;;;5052531;28;20956;-59
2023/09/06 01:07:50;;;;;;;3.50;2.73;;;23.00;68.40;;;;;;5052974;28;20465;-58
2023/09/06 01:10:17;;;;;;;3.40;3.00;;;22.90;68.50;;;;;;5053400;28;20414;-59
2023/09/06 01:12:43;;;;;;;2.57;2.17;;;22.90;68.70;;;;;;5053112;28;20557;-58
2023/09/06 01:15:12;;;;;;;5.90;2.77;;;22.80;68.70;;;;;;5053138;28;20461;-58
2023/09/06 01:17:41;;;;;;;3.07;2.80;;;22.80;69.00;;;;;;5052757;28;20450;-58
2023/09/06 01:20:15;;;;;;;4.17;2.60;;;22.70;69.30;;;;;;5052713;28;20852;-58
2023/09/06 01:22:49;;;;;;;3.00;2.70;;;22.70;69.70;;;;;;5052846;28;20499;-58
2023/09/06 01:25:18;;;;;;;2.97;2.57;;;22.70;70.10;;;;;;5053100;28;20425;-58
2023/09/06 01:27:45;;;;;;;3.53;3.20;;;22.60;70.30;;;;;;5053048;28;20445;-58
2023/09/06 01:30:12;;;;;;;3.03;2.83;;;22.60;70.60;;;;;;5052917;28;20441;-58
2023/09/06 01:32:40;;;;;;;4.77;2.87;;;22.60;70.90;;;;;;5052869;28;20535;-58
2023/09/06 01:35:10;;;;;;;2.70;2.50;;;22.50;70.80;;;;;;5053271;28;20477;-58
2023/09/06 01:37:37;;;;;;;3.13;2.50;;;22.50;71.10;;;;;;5053781;28;20461;-58
2023/09/06 01:40:14;;;;;;;3.17;2.87;;;22.50;71.60;;;;;;5052574;28;21071;-58
2023/09/06 01:42:43;;;;;;;2.77;2.50;;;22.40;71.60;;;;;;5052717;28;20497;-58
2023/09/06 01:45:10;;;;;;;3.50;2.40;;;22.30;71.40;;;;;;5052841;28;20446;-58
2023/09/06 01:47:36;;;;;;;3.30;2.87;;;22.20;70.90;;;;;;5052760;28;20442;-59
2023/09/06 01:50:04;;;;;;;3.10;2.53;;;22.10;70.80;;;;;;5052746;28;20445;-59
2023/09/06 01:52:31;;;;;;;2.67;2.47;;;22.10;71.00;;;;;;5052768;28;20928;-59
2023/09/06 01:54:57;;;;;;;4.33;2.93;;;22.00;71.20;;;;;;5052738;28;20444;-59
2023/09/06 01:57:24;;;;;;;6.43;2.80;;;22.00;71.40;;;;;;5052687;28;20492;-59
2023/09/06 01:59:52;;;;;;;2.97;2.77;;;21.90;71.30;;;;;;5052645;28;20446;-59
2023/09/06 02:02:19;;;;;;;3.60;2.90;;;21.90;71.70;;;;;;5052625;28;20813;-59
2023/09/06 02:04:45;;;;;;;6.93;2.60;;;21.90;72.20;;;;;;5052596;28;20504;-59
2023/09/06 02:07:12;;;;;;;2.83;2.63;;;21.90;72.70;;;;;;5052681;28;20445;-59
2023/09/06 02:09:39;;;;;;;3.67;2.67;;;21.90;73.30;;;;;;5052700;28;20445;-58
2023/09/06 02:12:08;;;;;;;5.83;2.73;;;21.90;73.50;;;;;;5052616;28;20458;-58
2023/09/06 02:14:35;;;;;;;4.50;3.10;;;21.80;74.20;;;;;;5052579;28;20520;-58
2023/09/06 02:17:03;;;;;;;3.17;2.80;;;21.80;73.70;;;;;;5053131;28;20528;-58
2023/09/06 02:19:30;;;;;;;3.13;2.77;;;21.80;73.90;;;;;;5056185;28;20469;-58
2023/09/06 02:21:56;;;;;;;7.77;3.47;;;21.80;74.10;;;;;;5055653;28;20547;-58
2023/09/06 02:24:23;;;;;;;3.40;3.10;;;21.80;74.10;;;;;;5056048;28;20438;-58
2023/09/06 02:26:50;;;;;;;3.50;2.80;;;21.70;73.80;;;;;;5056014;28;20446;-58
2023/09/06 02:29:16;;;;;;;3.50;2.83;;;21.70;73.80;;;;;;5055637;28;20959;-59
2023/09/06 02:31:45;;;;;;;3.00;2.73;;;21.60;73.90;;;;;;5056172;28;20454;-58
2023/09/06 02:34:13;;;;;;;5.13;2.37;;;21.60;74.10;;;;;;5055866;28;20481;-58
2023/09/06 02:36:40;;;;;;;5.10;3.37;;;21.60;74.30;;;;;;5055840;28;20452;-58
2023/09/06 02:39:07;;;;;;;3.93;3.30;;;21.50;74.70;;;;;;5055916;28;20454;-58
2023/09/06 02:41:33;;;;;;;5.93;3.60;;;21.60;75.40;;;;;;5055572;28;20485;-58
2023/09/06 02:44:00;;;;;;;5.77;4.00;;;21.50;75.80;;;;;;5055688;28;20453;-58
2023/09/06 02:46:29;;;;;;;3.70;3.40;;;21.50;76.30;;;;;;5056126;28;20446;-59
2023/09/06 02:48:58;;;;;;;3.97;3.03;;;21.60;76.70;;;;;;5056614;28;20476;-59
2023/09/06 02:51:29;;;;;;;4.60;3.07;;;21.50;76.80;;;;;;5056774;28;20441;-58
2023/09/06 02:53:57;;;;;;;5.03;3.67;;;21.50;77.20;;;;;;5056434;28;20461;-58
2023/09/06 02:56:23;;;;;;;4.40;3.70;;;21.50;77.50;;;;;;5055758;28;20947;-60
2023/09/06 02:58:50;;;;;;;8.07;4.30;;;21.60;77.60;;;;;;5055879;28;20442;-59
2023/09/06 03:01:20;;;;;;;3.63;3.30;;;21.60;77.70;;;;;;5055483;28;20493;-59
2023/09/06 03:03:48;;;;;;;4.50;3.43;;;21.60;77.80;;;;;;5055602;28;20469;-59
2023/09/06 03:06:17;;;;;;;3.40;3.10;;;21.60;77.70;;;;;;5055285;28;20441;-59
2023/09/06 03:08:46;;;;;;;5.07;3.50;;;21.60;77.60;;;;;;5055339;28;20445;-60
2023/09/06 03:11:14;;;;;;;5.00;3.43;;;21.60;77.80;;;;;;5055364;28;20449;-60
2023/09/06 03:13:41;;;;;;;5.23;3.70;;;21.60;77.90;;;;;;5055217;28;20821;-60
2023/09/06 03:16:13;;;;;;;4.67;3.30;;;21.60;77.90;;;;;;5055160;28;20445;-59
2023/09/06 03:18:40;;;;;;;7.17;4.23;;;21.60;78.00;;;;;;5054903;28;20457;-59
2023/09/06 03:21:07;;;;;;;4.10;3.50;;;21.60;78.20;;;;;;5054949;28;20535;-59
2023/09/06 03:23:34;;;;;;;4.00;3.63;;;21.60;78.10;;;;;;5055108;28;20833;-59
2023/09/06 03:26:02;;;;;;;3.63;3.30;;;21.60;78.10;;;;;;5055079;28;20646;-59
2023/09/06 03:28:29;;;;;;;7.33;3.70;;;21.60;78.30;;;;;;5053987;28;20993;-60
2023/09/06 03:30:58;;;;;;;5.70;3.47;;;21.50;78.30;;;;;;5054692;28;20797;-60
2023/09/06 03:33:25;;;;;;;3.73;3.43;;;21.50;78.40;;;;;;5054820;28;20556;-59
2023/09/06 03:35:52;;;;;;;4.67;3.73;;;21.50;78.50;;;;;;5054927;28;20484;-59
2023/09/06 03:38:20;;;;;;;6.40;3.30;;;21.50;78.60;;;;;;5054758;28;20449;-59
2023/09/06 03:40:49;;;;;;;4.10;3.47;;;21.50;78.60;;;;;;5054693;28;20509;-59
2023/09/06 03:43:19;;;;;;;4.67;3.20;;;21.50;78.80;;;;;;5054992;28;20527;-60
2023/09/06 03:45:50;;;;;;;4.47;3.33;;;21.50;78.80;;;;;;5054657;28;20454;-60
2023/09/06 03:48:19;;;;;;;6.53;3.73;;;21.40;78.80;;;;;;5054469;28;20433;-60
2023/09/06 03:50:46;;;;;;;3.47;3.00;;;21.40;78.80;;;;;;5054541;28;20465;-60
2023/09/06 03:53:14;;;;;;;5.13;4.00;;;21.40;78.80;;;;;;5054537;28;20514;-59
2023/09/06 03:55:42;;;;;;;6.83;4.20;;;21.50;78.90;;;;;;5054156;28;21026;-59
2023/09/06 03:58:10;;;;;;;7.63;4.93;;;21.50;78.90;;;;;;5054344;28;20442;-59
2023/09/06 04:00:43;;;;;;;5.90;4.10;;;21.50;78.90;;;;;;5054371;28;20549;-59
2023/09/06 04:03:10;;;;;;;7.90;5.50;;;21.50;78.90;;;;;;5054363;28;20474;-59
2023/09/06 04:05:40;;;;;;;7.00;4.00;;;21.40;78.90;;;;;;5054546;28;20449;-59
2023/09/06 04:08:09;;;;;;;4.97;3.93;;;21.40;79.00;;;;;;5054567;28;20476;-59
2023/09/06 04:10:36;;;;;;;8.80;4.57;;;21.40;79.00;;;;;;5054213;28;20544;-59
2023/09/06 04:13:03;;;;;;;5.70;3.77;;;21.40;79.10;;;;;;5054055;28;20900;-59
2023/09/06 04:15:34;;;;;;;5.40;3.80;;;21.40;79.20;;;;;;5054144;28;20442;-59
2023/09/06 04:18:04;;;;;;;9.53;4.20;;;21.40;79.10;;;;;;5054080;28;20814;-59
2023/09/06 04:20:35;;;;;;;4.20;3.80;;;21.40;79.30;;;;;;5053888;28;20446;-59
2023/09/06 04:23:02;;;;;;;4.63;3.60;;;21.40;79.40;;;;;;5053641;28;20557;-59
2023/09/06 04:25:33;;;;;;;4.73;3.90;;;21.30;79.40;;;;;;5053728;28;20446;-59
2023/09/06 04:28:01;;;;;;;10.37;4.87;;;21.30;79.60;;;;;;5053827;28;20445;-59
2023/09/06 04:30:30;;;;;;;6.50;4.00;;;21.30;79.60;;;;;;5053693;28;20522;-59
2023/09/06 04:32:58;;;;;;;4.10;3.50;;;21.30;79.60;;;;;;5053644;28;20545;-59
2023/09/06 04:35:32;;;;;;;4.80;3.37;;;21.30;79.60;;;;;;5053882;28;20481;-59
2023/09/06 04:38:00;;;;;;;4.93;3.10;;;21.20;79.50;;;;;;5053691;28;20495;-59
2023/09/06 04:40:27;;;;;;;5.03;3.33;;;21.20;79.60;;;;;;5053456;28;20495;-59
2023/09/06 04:42:53;;;;;;;4.60;3.07;;;21.10;79.80;;;;;;5053033;28;21029;-59
2023/09/06 04:45:20;;;;;;;3.40;3.10;;;21.10;80.00;;;;;;5053247;28;21050;-59
2023/09/06 04:47:47;;;;;;;3.23;2.97;;;21.10;80.00;;;;;;5053187;28;20446;-59
2023/09/06 04:50:14;;;;;;;5.23;2.90;;;21.00;79.60;;;;;;5053392;28;20441;-59
2023/09/06 04:52:47;;;;;;;5.00;3.37;;;21.00;79.90;;;;;;5053027;28;20470;-59
2023/09/06 04:55:14;;;;;;;3.53;3.23;;;21.00;80.30;;;;;;5053113;28;20802;-59
2023/09/06 04:57:41;;;;;;;3.67;3.30;;;21.00;80.00;;;;;;5053415;28;20491;-59
2023/09/06 05:00:17;;;;;;;3.23;2.80;;;21.00;80.20;;;;;;5053252;28;20452;-59
2023/09/06 05:02:45;;;;;;;4.07;2.60;;;21.00;80.30;;;;;;5053179;28;20485;-59
2023/09/06 05:05:12;;;;;;;3.83;3.43;;;21.00;80.50;;;;;;5053269;28;20826;-59
2023/09/06 05:07:39;;;;;;;4.30;2.90;;;21.10;80.90;;;;;;5053284;28;20448;-59
2023/09/06 05:10:09;;;;;;;3.20;2.80;;;21.10;80.40;;;;;;5053100;28;20442;-59
2023/09/06 05:12:35;;;;;;;4.10;3.77;;;21.10;80.50;;;;;;5053136;28;20469;-59
2023/09/06 05:15:02;;;;;;;3.53;2.83;;;21.10;80.40;;;;;;5053137;28;20475;-59
2023/09/06 05:17:29;;;;;;;5.13;2.50;;;21.10;80.50;;;;;;5053193;28;20503;-59
2023/09/06 05:19:56;;;;;;;4.00;3.00;;;21.10;80.50;;;;;;5052986;28;20923;-59
2023/09/06 05:22:23;;;;;;;6.30;3.20;;;21.10;80.40;;;;;;5052445;28;20998;-59
2023/09/06 05:24:51;;;;;;;4.40;3.17;;;21.10;80.20;;;;;;5053002;28;20454;-59
2023/09/06 05:27:21;;;;;;;3.90;3.50;;;21.10;80.00;;;;;;5053000;28;20449;-59
2023/09/06 05:29:49;;;;;;;3.87;3.47;;;21.10;80.30;;;;;;5053054;28;20514;-59
2023/09/06 05:32:18;;;;;;;4.33;3.03;;;21.10;80.60;;;;;;5052936;28;20464;-59
2023/09/06 05:34:45;;;;;;;6.10;3.10;;;21.10;81.00;;;;;;5052992;28;20456;-59
2023/09/06 05:37:12;;;;;;;3.67;3.30;;;21.10;81.00;;;;;;5052998;28;20453;-59
2023/09/06 05:39:38;;;;;;;6.07;4.47;;;21.20;81.20;;;;;;5052868;28;20457;-59
2023/09/06 05:42:05;;;;;;;9.63;4.53;;;21.20;80.70;;;;;;5052712;28;20868;-59
2023/09/06 05:44:33;;;;;;;6.43;4.43;;;21.20;80.60;;;;;;5052973;28;20453;-59
2023/09/06 05:47:00;;;;;;;6.30;4.73;;;21.10;80.50;;;;;;5052872;28;20456;-59
2023/09/06 05:49:27;;;;;;;9.03;4.90;;;21.10;80.40;;;;;;5052765;28;20444;-59
2023/09/06 05:51:53;;;;;;;7.80;5.10;;;21.20;80.60;;;;;;5053035;28;20465;-59
2023/09/06 05:54:20;;;;;;;12.77;5.10;;;21.10;81.00;;;;;;5057091;28;20460;-59
2023/09/06 05:56:47;;;;;;;9.17;5.80;;;21.10;81.20;;;;;;5056235;28;20445;-59
2023/09/06 05:59:14;;;;;;;6.80;4.80;;;21.20;81.50;;;;;;5056170;28;20958;-59
2023/09/06 06:01:42;;;;;;;7.63;3.70;;;21.30;81.40;;;;;;5056339;28;20481;-59
2023/09/06 06:04:11;;;;;;;5.23;4.13;;;21.20;81.20;;;;;;5056752;28;20441;-59
2023/09/06 06:06:40;;;;;;;6.90;4.00;;;21.30;81.50;;;;;;5056704;28;20445;-59
2023/09/06 06:09:11;;;;;;;5.80;3.83;;;21.30;81.10;;;;;;5056445;28;20454;-59
2023/09/06 06:11:38;;;;;;;7.33;4.20;;;21.40;81.30;;;;;;5056570;28;20458;-59
2023/09/06 06:14:04;;;;;;;5.93;3.60;;;21.40;81.10;;;;;;5056420;28;20490;-59
2023/09/06 06:16:31;;;;;;;4.50;3.60;;;21.40;81.00;;;;;;5056311;28;20442;-59
2023/09/06 06:18:59;;;;;;;6.40;3.27;;;21.40;80.80;;;;;;5055931;28;20451;-59
2023/09/06 06:21:28;;;;;;;6.30;4.07;;;21.50;81.30;;;;;;5055982;28;20454;-59
2023/09/06 06:23:55;;;;;;;3.70;3.33;;;21.50;80.90;;;;;;5056757;28;20433;-59
2023/09/06 06:26:22;;;;;;;5.83;3.77;;;21.60;80.90;;;;;;5056147;28;20441;-59
2023/09/06 06:28:49;;;;;;;3.97;3.60;;;21.60;80.90;;;;;;5056082;28;20442;-59
2023/09/06 06:31:16;;;;;;;7.30;3.27;;;21.60;80.60;;;;;;5055930;28;20442;-59
2023/09/06 06:33:43;;;;;;;7.30;3.20;;;21.70;80.60;;;;;;5055680;28;20823;-59
2023/09/06 06:36:11;;;;;;;5.97;3.67;;;21.80;80.50;;;;;;5055503;28;20847;-59
2023/09/06 06:38:38;;;;;;;5.43;3.57;;;21.90;80.90;;;;;;5055920;28;20441;-59
2023/09/06 06:41:06;;;;;;;11.73;3.90;;;21.90;81.10;;;;;;5055760;28;20445;-59
2023/09/06 06:43:33;;;;;;;4.03;3.20;;;21.90;80.70;;;;;;5055950;28;20516;-59
2023/09/06 06:46:04;;;;;;;5.80;3.70;;;22.00;80.30;;;;;;5055983;28;20504;-59
2023/09/06 06:48:31;;;;;;;5.70;3.40;;;22.10;80.60;;;;;;5056067;28;20433;-59
2023/09/06 06:50:57;;;;;;;4.70;3.60;;;22.10;80.10;;;;;;5055949;28;20485;-59
2023/09/06 06:53:25;;;;;;;5.97;2.80;;;22.20;79.90;;;;;;5055598;28;20461;-59
2023/09/06 06:55:52;;;;;;;9.80;3.10;;;22.30;79.50;;;;;;5055780;28;20507;-59
2023/09/06 06:58:18;;;;;;;5.00;3.37;;;22.30;79.40;;;;;;5055645;28;20441;-59
2023/09/06 07:00:46;;;;;;;4.90;3.13;;;22.40;79.00;;;;;;5055787;28;20445;-59
2023/09/06 07:03:13;;;;;;;3.63;3.33;;;22.50;78.80;;;;;;5054815;28;20580;-59
2023/09/06 07:05:39;;;;;;;5.73;3.70;;;22.50;78.90;;;;;;5054762;28;20445;-59
2023/09/06 07:08:06;;;;;;;6.50;3.20;;;22.60;78.60;;;;;;5055087;28;20944;-59
2023/09/06 07:10:34;;;;;;;3.80;3.27;;;22.70;78.00;;;;;;5055316;28;20452;-59
2023/09/06 07:13:01;;;;;;;6.00;3.60;;;22.80;77.60;;;;;;5055225;28;20519;-59
2023/09/06 07:15:28;;;;;;;5.77;3.30;;;22.90;77.40;;;;;;5054985;28;20457;-59
2023/09/06 07:17:55;;;;;;;5.17;3.07;;;23.00;77.10;;;;;;5055015;28;20481;-59
2023/09/06 07:20:22;;;;;;;5.17;3.23;;;23.10;76.50;;;;;;5054760;28;20488;-59
2023/09/06 07:22:49;;;;;;;3.57;2.90;;;23.20;75.50;;;;;;5054592;28;20493;-59
2023/09/06 07:25:16;;;;;;;4.13;3.00;;;23.20;74.90;;;;;;5055238;28;20442;-59
2023/09/06 07:27:44;;;;;;;3.40;3.10;;;23.30;74.60;;;;;;5054789;28;20951;-59
2023/09/06 07:30:12;;;;;;;3.80;3.30;;;23.40;74.00;;;;;;5055020;28;20445;-59
2023/09/06 07:32:39;;;;;;;3.80;2.80;;;23.60;73.80;;;;;;5054915;28;20560;-59
2023/09/06 07:35:07;;;;;;;4.70;2.53;;;23.70;73.40;;;;;;5054847;28;20985;-59
2023/09/06 07:37:34;;;;;;;3.50;2.90;;;23.80;72.60;;;;;;5054737;28;20815;-59
2023/09/06 07:40:01;;;;;;;4.80;2.47;;;23.90;72.20;;;;;;5054824;28;20536;-59
2023/09/06 07:42:28;;;;;;;4.50;3.10;;;24.10;71.40;;;;;;5054249;28;20474;-59
2023/09/06 07:44:57;;;;;;;2.93;2.37;;;24.20;70.60;;;;;;5054352;28;20449;-57
2023/09/06 07:47:24;;;;;;;2.80;2.60;;;24.30;69.70;;;;;;5054116;28;20958;-57
2023/09/06 07:49:50;;;;;;;4.47;2.57;;;24.50;69.20;;;;;;5054495;28;20450;-57
2023/09/06 07:52:17;;;;;;;4.37;2.83;;;24.60;68.00;;;;;;5054322;28;20455;-58
2023/09/06 07:54:44;;;;;;;7.50;3.50;;;24.80;67.80;;;;;;5054348;28;20449;-58
2023/09/06 07:57:10;;;;;;;4.70;2.77;;;24.90;66.70;;;;;;5054462;28;20438;-58
2023/09/06 07:59:38;;;;;;;4.43;3.50;;;25.10;66.40;;;;;;5054305;28;20442;-58
2023/09/06 08:02:06;;;;;;;7.17;3.67;;;25.30;66.50;;;;;;5054107;28;20488;-58
2023/09/06 08:04:33;;;;;;;4.20;2.80;;;25.40;65.50;;;;;;5054219;28;20449;-58
2023/09/06 08:07:00;;;;;;;5.60;3.10;;;25.60;64.30;;;;;;5054320;28;20445;-58
2023/09/06 08:09:26;;;;;;;4.33;3.00;;;25.70;63.40;;;;;;5053881;28;20434;-59
2023/09/06 08:11:53;;;;;;;3.83;3.30;;;25.90;62.60;;;;;;5054073;28;20470;-59
2023/09/06 08:14:20;;;;;;;5.70;2.57;;;26.10;61.00;;;;;;5054029;28;20437;-59
2023/09/06 08:16:46;;;;;;;3.80;2.70;;;26.30;59.80;;;;;;5053667;28;20452;-59
2023/09/06 08:19:14;;;;;;;3.50;2.50;;;26.40;59.10;;;;;;5053970;28;20449;-58
2023/09/06 08:21:42;;;;;;;5.73;2.60;;;26.50;59.00;;;;;;5053447;28;20999;-59
2023/09/06 08:24:08;;;;;;;3.60;2.90;;;26.70;58.50;;;;;;5054007;28;20477;-59
2023/09/06 08:26:36;;;;;;;3.53;2.77;;;26.80;57.70;;;;;;5053716;28;20519;-59
2023/09/06 08:29:04;;;;;;;6.03;2.70;;;27.00;57.80;;;;;;5053867;28;20473;-59
2023/09/06 08:31:31;;;;;;;3.10;2.87;;;27.10;56.70;;;;;;5053715;28;20465;-59
2023/09/06 08:33:57;;;;;;;2.73;2.53;;;27.30;56.30;;;;;;5053652;28;20460;-59
2023/09/06 08:36:26;;;;;;;2.60;2.40;;;27.50;55.80;;;;;;5053972;28;20446;-59
2023/09/06 08:38:53;;;;;;;3.10;2.80;;;27.60;55.50;;;;;;5053852;28;20481;-59
2023/09/06 08:41:21;;;;;;;2.97;2.70;;;27.80;55.50;;;;;;5053563;28;20445;-59
2023/09/06 08:43:50;;;;;;;3.90;2.57;;;28.00;55.40;;;;;;5053432;28;20509;-59
2023/09/06 08:46:21;;;;;;;2.73;2.53;;;28.30;55.70;;;;;;5053765;28;20448;-59
2023/09/06 08:48:49;;;;;;;4.53;2.73;;;28.50;54.90;;;;;;5053643;28;20441;-59
2023/09/06 08:51:16;;;;;;;2.83;2.63;;;28.60;53.80;;;;;;5053349;28;20453;-59
2023/09/06 08:53:45;;;;;;;4.70;2.70;;;28.80;53.10;;;;;;5053391;28;20449;-59
2023/09/06 08:56:15;;;;;;;4.83;2.93;;;29.00;52.80;;;;;;5053417;28;20549;-59
2023/09/06 08:58:42;;;;;;;6.47;3.37;;;29.10;51.90;;;;;;5053469;28;20450;-59
2023/09/06 09:01:08;;;;;;;2.97;2.67;;;29.30;51.40;;;;;;5054135;28;20453;-59
2023/09/06 09:03:35;;;;;;;4.13;3.23;;;29.50;51.40;;;;;;5054163;28;20484;-59
2023/09/06 09:06:06;;;;;;;3.47;3.17;;;29.70;50.90;;;;;;5053182;28;20441;-59
2023/09/06 09:08:33;;;;;;;3.07;2.83;;;29.90;50.40;;;;;;5053536;28;20453;-59
2023/09/06 09:11:12;;;;;;;6.53;3.10;;;30.00;50.10;;;;;;5052989;28;20935;-59
2023/09/06 09:13:38;;;;;;;3.07;2.77;;;30.30;50.10;;;;;;5053379;28;20487;-56
2023/09/06 09:16:09;;;;;;;5.87;3.63;;;30.50;49.50;;;;;;5053269;28;20437;-58
2023/09/06 09:18:37;;;;;;;3.90;3.60;;;30.70;48.70;;;;;;5053246;28;20441;-58
2023/09/06 09:21:04;;;;;;;3.47;3.17;;;30.90;47.60;;;;;;5052970;28;20445;-58
2023/09/06 09:23:31;;;;;;;4.40;3.07;;;31.00;48.20;;;;;;5053293;28;20508;-58
2023/09/06 09:25:58;;;;;;;4.17;3.87;;;31.30;47.10;;;;;;5053211;28;20448;-57
2023/09/06 09:28:34;;;;;;;4.00;3.53;;;31.50;46.70;;;;;;5056503;28;20441;-58
2023/09/06 09:31:00;;;;;;;3.30;2.90;;;31.70;46.50;;;;;;5057357;28;20911;-58
2023/09/06 09:33:28;;;;;;;3.20;2.90;;;31.90;45.70;;;;;;5058358;28;20461;-58
2023/09/06 09:35:56;;;;;;;5.40;3.43;;;32.10;45.70;;;;;;5057170;28;20441;-58
2023/09/06 09:38:22;;;;;;;4.30;3.90;;;32.30;45.70;;;;;;5057431;28;20502;-58
2023/09/06 09:41:05;;;;;;;8.73;4.00;;;32.40;43.70;;;;;;5057147;28;20452;-58
2023/09/06 09:43:34;;;;;;;3.90;3.60;;;32.50;43.30;;;;;;5057159;28;20531;-59
2023/09/06 09:46:02;;;;;;;4.03;3.73;;;32.70;42.60;;;;;;5056907;28;20459;-58
2023/09/06 09:48:30;;;;;;;4.10;3.50;;;32.90;42.40;;;;;;5056909;28;20445;-58
2023/09/06 09:50:57;;;;;;;6.20;3.87;;;33.10;41.90;;;;;;5056885;28;20447;-58
2023/09/06 09:53:24;;;;;;;3.57;3.17;;;33.20;40.20;;;;;;5056803;28;20472;-58
2023/09/06 09:55:54;;;;;;;3.30;3.10;;;33.40;40.50;;;;;;5056447;28;20930;-58
2023/09/06 09:58:21;;;;;;;5.70;3.80;;;33.60;40.40;;;;;;5056706;28;20437;-58
2023/09/06 10:00:50;;;;;;;6.73;3.50;;;33.80;39.20;;;;;;5056318;28;20985;-58
2023/09/06 10:03:18;;;;;;;3.80;3.47;;;34.00;38.90;;;;;;5056408;28;20519;-58
2023/09/06 10:05:45;;;;;;;4.07;3.63;;;34.30;38.40;;;;;;5056327;28;20847;-58
2023/09/06 10:08:14;;;;;;;7.50;3.63;;;34.50;37.80;;;;;;5056502;28;20449;-58
2023/09/06 10:10:41;;;;;;;4.30;3.90;;;34.70;36.70;;;;;;5056438;28;20448;-58
2023/09/06 10:13:08;;;;;;;7.70;4.23;;;35.00;35.20;;;;;;5056409;28;20468;-59
2023/09/06 10:15:36;;;;;;;4.90;3.70;;;35.30;34.40;;;;;;5056299;28;20202;-58
2023/09/06 10:18:06;;;;;;;4.47;3.87;;;35.60;34.40;;;;;;5056918;28;20203;-58
2023/09/06 10:20:34;;;;;;;4.13;3.73;;;35.90;33.70;;;;;;5056535;28;20191;-58
2023/09/06 10:23:02;;;;;;;4.07;3.70;;;36.30;32.30;;;;;;5055851;28;20241;-58
2023/09/06 10:25:28;;;;;;;5.10;4.10;;;36.70;31.90;;;;;;5056629;28;20202;-58
2023/09/06 10:27:56;;;;;;;4.25;3.03;;;37.00;31.80;;;;;;5056223;28;20209;-58
2023/09/06 10:30:40;;;;;;;4.72;3.90;;;37.40;31.60;;;;;;5055736;28;20210;-58
2023/09/06 10:33:09;;;;;;;4.13;3.65;;;37.80;30.40;;;;;;5056010;28;20644;-58
2023/09/06 10:35:42;;;;;;;5.03;4.07;;;38.40;30.00;;;;;;5056070;28;20202;-58
2023/09/06 10:38:14;;;;;;;6.82;3.95;;;38.90;29.40;;;;;;5055561;28;20637;-58
2023/09/06 10:41:10;;;;;;;8.73;4.25;;;39.40;28.40;;;;;;5056374;28;20277;-58
2023/09/06 10:44:03;;;;;;;7.00;3.83;;;39.90;26.60;;;;;;5056107;28;20279;-58
2023/09/06 10:46:30;;;;;;;4.05;3.58;;;40.40;26.50;;;;;;5056268;28;20187;-58
2023/09/06 10:49:19;;;;;;;4.68;3.38;;;40.80;26.10;;;;;;5056152;28;20206;-58
2023/09/06 10:52:04;;;;;;;3.70;3.30;;;41.30;25.60;;;;;;5055708;28;20723;-59
2023/09/06 10:54:35;;;;;;;3.90;3.53;;;41.70;24.20;;;;;;5055560;28;20601;-59
2023/09/06 10:57:05;;;;;;;5.18;3.38;;;42.10;23.80;;;;;;5055650;28;20194;-58
2023/09/06 10:59:32;;;;;;;5.97;3.50;;;42.50;23.10;;;;;;5055586;28;20190;-59
2023/09/06 11:02:16;;;;;;;7.03;3.53;;;42.90;23.50;;;;;;5056651;28;20277;-59
2023/09/06 11:04:44;;;;;;;7.88;3.65;;;43.30;21.60;;;;;;5055475;28;20210;-59
2023/09/06 11:07:11;;;;;;;3.60;3.30;;;43.60;22.10;;;;;;5055335;28;20276;-59
2023/09/06 11:09:45;;;;;;;3.83;3.42;;;43.90;21.60;;;;;;5055283;28;20234;-59
2023/09/06 11:12:12;;;;;;;3.67;3.38;;;44.20;21.10;;;;;;5055326;28;20309;-59
2023/09/06 11:14:39;;;;;;;3.20;3.00;;;44.60;21.00;;;;;;5055158;28;20272;-59
2023/09/06 11:17:06;;;;;;;4.68;3.22;;;45.00;21.10;;;;;;5055134;28;20203;-59
2023/09/06 11:19:35;;;;;;;4.03;3.03;;;45.50;20.10;;;;;;5055208;28;20202;-59
2023/09/06 11:22:07;;;;;;;6.40;3.92;;;45.70;19.10;;;;;;5054655;28;20604;-59
2023/09/06 11:24:35;;;;;;;7.28;3.40;;;45.90;19.60;;;;;;5054955;28;20233;-59
2023/09/06 11:27:03;;;;;;;6.05;4.05;;;46.00;18.60;;;;;;5055026;28;20292;-59
2023/09/06 11:29:31;;;;;;;3.40;3.10;;;46.20;18.90;;;;;;5054967;28;20289;-59
2023/09/06 11:32:09;;;;;;;5.20;3.00;;;46.50;19.10;;;;;;5054908;28;20276;-59
2023/09/06 11:34:42;;;;;;;5.93;3.50;;;46.80;18.20;;;;;;5055641;28;20189;-59
2023/09/06 11:37:12;;;;;;;4.95;3.65;;;47.00;18.10;;;;;;5054825;28;20248;-59
2023/09/06 11:39:40;;;;;;;5.05;3.22;;;47.30;17.80;;;;;;5054767;28;20292;-59
2023/09/06 11:42:10;;;;;;;3.35;3.00;;;47.50;18.20;;;;;;5054559;28;20750;-60
2023/09/06 11:44:43;;;;;;;3.15;2.80;;;47.60;17.30;;;;;;5054779;28;20260;-59
2023/09/06 11:47:10;;;;;;;5.18;3.40;;;47.80;16.70;;;;;;5054758;28;20191;-59
2023/09/06 11:49:39;;;;;;;6.30;3.35;;;48.00;17.30;;;;;;5054039;28;20213;-59
2023/09/06 11:52:07;;;;;;;3.75;3.30;;;48.20;17.70;;;;;;5055464;28;20272;-59
2023/09/06 11:54:38;;;;;;;4.32;3.03;;;48.50;16.70;;;;;;5054373;28;20699;-59
2023/09/06 11:57:08;;;;;;;3.50;3.20;;;48.70;16.50;;;;;;5054752;28;20191;-59
2023/09/06 11:59:37;;;;;;;4.10;3.47;;;48.80;15.30;;;;;;5054694;28;20203;-59
2023/09/06 12:02:06;;;;;;;3.38;3.08;;;49.00;16.60;;;;;;5054579;28;20226;-59
2023/09/06 12:04:32;;;;;;;3.50;3.20;;;49.20;15.80;;;;;;5054423;28;20226;-59
2023/09/06 12:07:00;;;;;;;3.65;2.72;;;49.40;15.70;;;;;;5054099;28;20578;-59
2023/09/06 12:09:27;;;;;;;3.15;2.95;;;49.50;16.20;;;;;;5054575;28;20249;-59
2023/09/06 12:11:55;;;;;;;3.58;3.25;;;49.80;15.90;;;;;;5054146;28;20634;-59
2023/09/06 12:14:23;;;;;;;5.40;2.80;;;50.10;16.00;;;;;;5054431;28;20202;-59
2023/09/06 12:16:49;;;;;;;3.22;2.90;;;50.30;15.70;;;;;;5054452;28;20577;-59
2023/09/06 12:19:17;;;;;;;3.05;2.75;;;50.40;15.20;;;;;;5054164;28;20202;-59
2023/09/06 12:21:44;;;;;;;3.10;2.78;;;50.70;15.60;;;;;;5053524;28;20604;-59
2023/09/06 12:24:11;;;;;;;3.10;2.90;;;50.90;15.00;;;;;;5053935;28;20226;-59
2023/09/06 12:26:37;;;;;;;3.70;3.40;;;51.10;14.80;;;;;;5053752;28;20300;-59
2023/09/06 12:29:05;;;;;;;2.88;2.67;;;51.40;14.70;;;;;;5054375;28;20211;-60
2023/09/06 12:31:32;;;;;;;3.00;2.80;;;51.50;14.80;;;;;;5053471;28;20580;-59
2023/09/06 12:33:59;;;;;;;4.47;3.53;;;51.80;14.30;;;;;;5053764;28;20202;-59
2023/09/06 12:36:26;;;;;;;3.10;2.90;;;51.90;14.10;;;;;;5053666;28;20202;-59
2023/09/06 12:38:52;;;;;;;3.20;2.90;;;52.10;13.50;;;;;;5053405;28;20252;-60
2023/09/06 12:41:19;;;;;;;3.95;2.92;;;52.20;13.10;;;;;;5053346;28;20690;-60
2023/09/06 12:43:46;;;;;;;2.85;2.65;;;52.10;12.90;;;;;;5053133;28;20735;-60
2023/09/06 12:46:14;;;;;;;3.00;2.80;;;52.10;13.70;;;;;;5053410;28;20741;-60
2023/09/06 12:48:42;;;;;;;3.67;3.38;;;52.20;13.60;;;;;;5053700;28;20229;-60
2023/09/06 12:51:08;;;;;;;2.95;2.70;;;52.40;14.00;;;;;;5053943;28;20284;-60